Bremgarten, Germany

11:34 PM CET on February 08, 2016 (GMT +0100)
Fire Department | | Change Station
CLOSE
Current Station
Personal Weather Station
Location: Bad Krozingen, BADEN-WüRTTEMBERG
Elevation: 741 ft
Nearby Weather Stations

Elev 741 ft 47.92 °N, 7.70 °E | Updated 4 minutes ago

Overcast
Overcast
47.8 °F
Feels Like 43 °F
N
10.3
Wind Variable Wind from South
Gusts 18.5 mph

Today
High -- | Low -- °F
--% Chance of Precip.
Yesterday
High -- | Low -- °F
Precip. -- in
Pressure 29.83 in
Visibility 6.2 miles
Clouds Few 2600 ft
Few 3000 ft
Mostly Cloudy 5200 ft
Windchill 43 °F
Dew Point 43 °F
Humidity 82%
Rainfall 0.22 in
Snow Depth Not available.
7:48 AM 5:39 PM
New Moon, 0% visible
METAR LFSB 082230Z 27013G24KT 240V310 9999 -SHRA FEW026 FEW030TCU BKN052 09/06 Q1010 TEMPO 26020G35KT
Pressure 29.83 in
Visibility 6.2 miles
Clouds Few 2600 ft
Few 3000 ft
Mostly Cloudy 5200 ft
Windchill 43 °F
Dew Point 43 °F
Humidity 82%
Rainfall 0.22 in
Snow Depth Not available.
7:48 AM 5:39 PM
New Moon, 0% visible
METAR LFSB 082230Z 27013G24KT 240V310 9999 -SHRA FEW026 FEW030TCU BKN052 09/06 Q1010 TEMPO 26020G35KT

10-Day Weather Forecast

Almanac

Astronomy

Feb. 08, 2016 Rise Set
Actual Time
Civil Twilight
Nautical Twilight
Astronomical Twilight
Moon
Length of Visible Light
Length of Day
Tomorrow will be .
, % of the Moon is Illuminated

Today's Extremes

Country Highs Country Lows

Community

WunderPhotos

Upload Photos

1,891,518 photos uploaded!

WunderBlog® & News

Nearby

Air Quality

  Air Quality AQ Index Pollutant
Not available.

Snow Depth

Station Depth Elevation

Earthquake Activity

City Distance Mag. Time & Date
Minimum magnitude displayed is 2.5.

Coastal Water Temperatures

Place Temperature

Stations

Nearby Weather Stations

Station Location Temp. Windchill Dew Point Humidity Wind Precip. Elev Updated Type